Terminal Aerodrome Forecast
Issued by NWS

Home | Current Version | Previous Version | Text Only | Print | Product List | Glossary On
Versions: 1 2 3 4 5 6 7 8 9 10 11 12 13 14
000
FTUS43 KDVN 191700
TAFBRL
TAF
KBRL 191722Z 1918/2018 18012KT P6SM SCT200
     FM200000 18008KT P6SM SCT250
     FM200600 20010KT P6SM BKN250
     FM201200 22010KT 6SM BR VCSH SCT035 BKN080
     FM201700 24011KT P6SM BKN035=

USA.gov is the U.S. government's official web portal to all federal, state and local government web resources and services.